Map

Track Data

SID SEASON NUMBER BASIN SUBBASIN NAME ISO_TIME NATURE LAT LON WMO_WIND WMO_PRES WMO_AGENCY TRACK_TYPE DIST2LAND LANDFALL IFLAG USA_AGENCY USA_ATCF_ID USA_LAT USA_LON USA_RECORD USA_STATUS USA_WIND USA_PRES USA_SSHS USA_R34_NE USA_R34_SE USA_R34_SW USA_R34_NW USA_R50_NE USA_R50_SE USA_R50_SW USA_R50_NW USA_R64_NE USA_R64_SE USA_R64_SW USA_R64_NW USA_POCI USA_ROCI USA_RMW USA_EYE TOKYO_LAT TOKYO_LON TOKYO_GRADE TOKYO_WIND TOKYO_PRES TOKYO_R50_DIR TOKYO_R50_LONG TOKYO_R50_SHORT TOKYO_R30_DIR TOKYO_R30_LONG TOKYO_R30_SHORT TOKYO_LAND CMA_LAT CMA_LON CMA_CAT CMA_WIND CMA_PRES HKO_LAT HKO_LON HKO_CAT HKO_WIND HKO_PRES NEWDELHI_LAT NEWDELHI_LON NEWDELHI_GRADE NEWDELHI_WIND NEWDELHI_PRES NEWDELHI_CI NEWDELHI_DP NEWDELHI_POCI REUNION_LAT REUNION_LON REUNION_TYPE REUNION_WIND REUNION_PRES REUNION_TNUM REUNION_CI REUNION_RMW REUNION_R34_NE REUNION_R34_SE REUNION_R34_SW REUNION_R34_NW REUNION_R50_NE REUNION_R50_SE REUNION_R50_SW REUNION_R50_NW REUNION_R64_NE REUNION_R64_SE REUNION_R64_SW REUNION_R64_NW BOM_LAT BOM_LON BOM_TYPE BOM_WIND BOM_PRES BOM_TNUM BOM_CI BOM_RMW BOM_R34_NE BOM_R34_SE BOM_R34_SW BOM_R34_NW BOM_R50_NE BOM_R50_SE BOM_R50_SW BOM_R50_NW BOM_R64_NE BOM_R64_SE BOM_R64_SW BOM_R64_NW BOM_ROCI BOM_POCI BOM_EYE BOM_POS_METHOD BOM_PRES_METHOD NADI_LAT NADI_LON NADI_CAT NADI_WIND NADI_PRES WELLINGTON_LAT WELLINGTON_LON WELLINGTON_WIND WELLINGTON_PRES DS824_LAT DS824_LON DS824_STAGE DS824_WIND DS824_PRES TD9636_LAT TD9636_LON TD9636_STAGE TD9636_WIND TD9636_PRES TD9635_LAT TD9635_LON TD9635_WIND TD9635_PRES TD9635_ROCI NEUMANN_LAT NEUMANN_LON NEUMANN_CLASS NEUMANN_WIND NEUMANN_PRES MLC_LAT MLC_LON MLC_CLASS MLC_WIND MLC_PRES USA_GUST BOM_GUST BOM_GUST_PER REUNION_GUST REUNION_GUST_PER USA_SEAHGT USA_SEARAD_NE USA_SEARAD_SE USA_SEARAD_SW USA_SEARAD_NW STORM_SPEED STORM_DIR
1916283N19284 1916 59 NA CS NOT_NAMED 1916-10-09 06:00:00 TS 18.5000 -75.6000 25 hurdat_atl main 81 53 O_____________ hurdat_atl AL141916 18.5000 -75.6000 TD 25 -1 6 216
1916283N19284 1916 59 NA CS NOT_NAMED 1916-10-09 09:00:00 TS 18.2400 -75.8001 main 52 23 P_____________ AL141916 18.2400 -75.8001 TD 25 -1 6 217
1916283N19284 1916 59 NA CS NOT_NAMED 1916-10-09 12:00:00 TS 18.0000 -76.0000 25 hurdat_atl main 23 10 O_____________ hurdat_atl AL141916 18.0000 -76.0000 TD 25 -1 6 220
1916283N19284 1916 59 NA CS NOT_NAMED 1916-10-09 15:00:00 TS 17.7925 -76.1999 main 11 11 P_____________ AL141916 17.7925 -76.1999 TD 25 -1 6 224
1916283N19284 1916 59 NA CS NOT_NAMED 1916-10-09 18:00:00 TS 17.6000 -76.4000 25 hurdat_atl main 33 33 O_____________ hurdat_atl AL141916 17.6000 -76.4000 TD 25 -1 5 224
1916283N19284 1916 59 NA CS NOT_NAMED 1916-10-09 21:00:00 TS 17.4000 -76.6000 main 55 55 P_____________ AL141916 17.4000 -76.6000 TD 27 -1 6 224
1916283N19284 1916 59 NA CS NOT_NAMED 1916-10-10 00:00:00 TS 17.2000 -76.8000 30 hurdat_atl main 70 70 O_____________ hurdat_atl AL141916 17.2000 -76.8000 TD 30 -1 6 224
1916283N19284 1916 59 NA CS NOT_NAMED 1916-10-10 03:00:00 TS 16.9925 -77.0075 main 81 81 P_____________ AL141916 16.9925 -77.0075 TD 30 -1 6 224
1916283N19284 1916 59 NA CS NOT_NAMED 1916-10-10 06:00:00 TS 16.8000 -77.2000 30 hurdat_atl main 100 100 O_____________ hurdat_atl AL141916 16.8000 -77.2000 TD 30 -1 5 223
1916283N19284 1916 59 NA CS NOT_NAMED 1916-10-10 09:00:00 TS 16.6350 -77.3575 main 124 124 P_____________ AL141916 16.6350 -77.3575 TD 30 -1 4 224
1916283N19284 1916 59 NA CS NOT_NAMED 1916-10-10 12:00:00 TS 16.5000 -77.5000 30 hurdat_atl main 138 138 O_____________ hurdat_atl AL141916 16.5000 -77.5000 TD 30 -1 4 230
1916283N19284 1916 59 NA CS NOT_NAMED 1916-10-10 15:00:00 TS 16.3925 -77.6575 main 154 154 P_____________ AL141916 16.3925 -77.6575 TD 30 -1 4 235
1916283N19284 1916 59 NA CS NOT_NAMED 1916-10-10 18:00:00 TS 16.3000 -77.8000 30 hurdat_atl main 169 169 O_____________ hurdat_atl AL141916 16.3000 -77.8000 TD 30 -1 3 230
1916283N19284 1916 59 NA CS NOT_NAMED 1916-10-10 21:00:00 TS 16.1925 -77.9075 main 183 183 P_____________ AL141916 16.1925 -77.9075 TD 30 -1 3 224
1916283N19284 1916 59 NA CS NOT_NAMED 1916-10-11 00:00:00 TS 16.1000 -78.0000 30 hurdat_atl main 198 198 O_____________ hurdat_atl AL141916 16.1000 -78.0000 TD 30 -1 2 228
1916283N19284 1916 59 NA CS NOT_NAMED 1916-10-11 03:00:00 TS 16.0350 -78.0925 main 213 213 P_____________ AL141916 16.0350 -78.0925 TD 30 -1 2 243
1916283N19284 1916 59 NA CS NOT_NAMED 1916-10-11 06:00:00 TS 16.0000 -78.2000 30 hurdat_atl main 218 218 O_____________ hurdat_atl AL141916 16.0000 -78.2000 TD 30 -1 2 258
1916283N19284 1916 59 NA CS NOT_NAMED 1916-10-11 09:00:00 TS 15.9850 -78.3425 main 222 222 P_____________ AL141916 15.9850 -78.3425 TD 30 -1 3 270
1916283N19284 1916 59 NA CS NOT_NAMED 1916-10-11 12:00:00 TS 16.0000 -78.5000 30 hurdat_atl main 229 229 O_____________ hurdat_atl AL141916 16.0000 -78.5000 TD 30 -1 3 279
1916283N19284 1916 59 NA CS NOT_NAMED 1916-10-11 15:00:00 TS 16.0350 -78.6575 main 237 227 P_____________ AL141916 16.0350 -78.6575 TD 30 -1 3 289
1916283N19284 1916 59 NA CS NOT_NAMED 1916-10-11 18:00:00 TS 16.1000 -78.8000 30 hurdat_atl main 232 229 O_____________ hurdat_atl AL141916 16.1000 -78.8000 TD 30 -1 3 305
1916283N19284 1916 59 NA CS NOT_NAMED 1916-10-11 21:00:00 TS 16.2000 -78.9075 main 229 221 P_____________ AL141916 16.2000 -78.9075 TD 32 -1 3 316
1916283N19284 1916 59 NA CS NOT_NAMED 1916-10-12 00:00:00 TS 16.3000 -79.0000 35 hurdat_atl main 221 214 O_____________ hurdat_atl AL141916 16.3000 -79.0000 TS 35 0 2 312
1916283N19284 1916 59 NA CS NOT_NAMED 1916-10-12 03:00:00 TS 16.3575 -79.0925 main 214 214 P_____________ AL141916 16.3575 -79.0925 TS 37 0 2 297
1916283N19284 1916 59 NA CS NOT_NAMED 1916-10-12 06:00:00 TS 16.4000 -79.2000 40 hurdat_atl main 218 212 O_____________ hurdat_atl AL141916 16.4000 -79.2000 TS 40 0 3 292
1916283N19284 1916 59 NA CS NOT_NAMED 1916-10-12 09:00:00 TS 16.4575 -79.3500 main 212 212 P_____________ AL141916 16.4575 -79.3500 TS 42 0 3 289
1916283N19284 1916 59 NA CS NOT_NAMED 1916-10-12 12:00:00 TS 16.5000 -79.5000 45 hurdat_atl main 223 223 O_____________ hurdat_atl AL141916 16.5000 -79.5000 TS 45 0 3 281
1916283N19284 1916 59 NA CS NOT_NAMED 1916-10-12 15:00:00 TS 16.5075 -79.6075 main 228 228 P_____________ AL141916 16.5075 -79.6075 TS 47 0 2 270
1916283N19284 1916 59 NA CS NOT_NAMED 1916-10-12 18:00:00 TS 16.5000 -79.7000 50 hurdat_atl main 235 235 O_____________ hurdat_atl AL141916 16.5000 -79.7000 TS 50 0 2 268
1916283N19284 1916 59 NA CS NOT_NAMED 1916-10-12 21:00:00 TS 16.5000 -79.8000 main 241 241 P_____________ AL141916 16.5000 -79.8000 TS 52 0 2 270
1916283N19284 1916 59 NA CS NOT_NAMED 1916-10-13 00:00:00 TS 16.5000 -79.9000 55 hurdat_atl main 248 248 O_____________ hurdat_atl AL141916 16.5000 -79.9000 TS 55 0 2 270
1916283N19284 1916 59 NA CS NOT_NAMED 1916-10-13 03:00:00 TS 16.5000 -79.9850 main 255 255 P_____________ AL141916 16.5000 -79.9850 TS 57 0 2 270
1916283N19284 1916 59 NA CS NOT_NAMED 1916-10-13 06:00:00 TS 16.5000 -80.1000 60 hurdat_atl main 262 262 O_____________ hurdat_atl AL141916 16.5000 -80.1000 TS 60 0 3 270
1916283N19284 1916 59 NA CS NOT_NAMED 1916-10-13 09:00:00 TS 16.5000 -80.2700 main 277 277 P_____________ AL141916 16.5000 -80.2700 TS 62 0 4 270
1916283N19284 1916 59 NA CS NOT_NAMED 1916-10-13 12:00:00 TS 16.5000 -80.5000 65 hurdat_atl main 293 293 O_____________ hurdat_atl AL141916 16.5000 -80.5000 HU 65 1 5 270
1916283N19284 1916 59 NA CS NOT_NAMED 1916-10-13 15:00:00 TS 16.5000 -80.7775 main 298 272 P_____________ AL141916 16.5000 -80.7775 HU 70 1 6 270
1916283N19284 1916 59 NA CS NOT_NAMED 1916-10-13 18:00:00 TS 16.5000 -81.1000 75 hurdat_atl main 272 247 O_____________ hurdat_atl AL141916 16.5000 -81.1000 HU 75 1 6 269
1916283N19284 1916 59 NA CS NOT_NAMED 1916-10-13 21:00:00 TS 16.4849 -81.4276 main 247 217 P_____________ AL141916 16.4849 -81.4276 HU 80 1 7 270
1916283N19284 1916 59 NA CS NOT_NAMED 1916-10-14 00:00:00 TS 16.5000 -81.8000 85 hurdat_atl main 217 193 O_____________ hurdat_atl AL141916 16.5000 -81.8000 HU 85 2 8 277
1916283N19284 1916 59 NA CS NOT_NAMED 1916-10-14 03:00:00 TS 16.5775 -82.2350 main 194 173 P_____________ AL141916 16.5775 -82.2350 HU 90 2 9 283
1916283N19284 1916 59 NA CS NOT_NAMED 1916-10-14 06:00:00 TS 16.7000 -82.7000 95 hurdat_atl main 173 165 O_____________ hurdat_atl AL141916 16.7000 -82.7000 HU 95 2 9 287
1916283N19284 1916 59 NA CS NOT_NAMED 1916-10-14 09:00:00 TS 16.8424 -83.1500 main 159 149 P_____________ AL141916 16.8424 -83.1500 HU 95 2 9 289
1916283N19284 1916 59 NA CS NOT_NAMED 1916-10-14 12:00:00 TS 17.0000 -83.6000 95 hurdat_atl main 153 144 O_____________ hurdat_atl AL141916 17.0000 -83.6000 HU 95 2 9 289
1916283N19284 1916 59 NA CS NOT_NAMED 1916-10-14 15:00:00 TS 17.1424 -84.0501 main 147 147 P_____________ AL141916 17.1424 -84.0501 HU 95 2 9 289
1916283N19284 1916 59 NA CS NOT_NAMED 1916-10-14 18:00:00 TS 17.3000 -84.5000 95 hurdat_atl main 158 157 O_____________ hurdat_atl AL141916 17.3000 -84.5000 HU 95 2 9 292
1916283N19284 1916 59 NA CS NOT_NAMED 1916-10-14 21:00:00 TS 17.4924 -84.9500 main 179 179 P_____________ AL141916 17.4924 -84.9500 HU 95 2 9 295
1916283N19284 1916 59 NA CS NOT_NAMED 1916-10-15 00:00:00 TS 17.7000 -85.4000 95 hurdat_atl main 201 201 O_____________ hurdat_atl AL141916 17.7000 -85.4000 HU 95 2 9 295
1916283N19284 1916 59 NA CS NOT_NAMED 1916-10-15 03:00:00 TS 17.8924 -85.8502 main 203 158 P_____________ AL141916 17.8924 -85.8502 HU 95 2 9 295
1916283N19284 1916 59 NA CS NOT_NAMED 1916-10-15 06:00:00 TS 18.1000 -86.3000 95 hurdat_atl main 158 110 O_____________ hurdat_atl AL141916 18.1000 -86.3000 HU 95 2 10 298
1916283N19284 1916 59 NA CS NOT_NAMED 1916-10-15 09:00:00 TS 18.3423 -86.7426 main 110 52 P_____________ AL141916 18.3423 -86.7426 HU 95 2 10 300
1916283N19284 1916 59 NA CS NOT_NAMED 1916-10-15 12:00:00 TS 18.6000 -87.2000 95 hurdat_atl main 52 0 O_____________ hurdat_atl AL141916 18.6000 -87.2000 HU 95 2 10 299
1916283N19284 1916 59 NA CS NOT_NAMED 1916-10-15 15:00:00 TS 18.8425 -87.7076 main 0 0 P_____________ AL141916 18.8425 -87.7076 HU 80 1 11 298
1916283N19284 1916 59 NA NA NOT_NAMED 1916-10-15 18:00:00 TS 19.1000 -88.2000 65 hurdat_atl main 0 0 O_____________ hurdat_atl AL141916 19.1000 -88.2000 HU 65 1 10 303
1916283N19284 1916 59 NA NA NOT_NAMED 1916-10-15 21:00:00 TS 19.3923 -88.6077 main 0 0 P_____________ AL141916 19.3923 -88.6077 HU 57 0 10 308
1916283N19284 1916 59 NA NA NOT_NAMED 1916-10-16 00:00:00 TS 19.7000 -89.0000 50 hurdat_atl main 0 0 O_____________ hurdat_atl AL141916 19.7000 -89.0000 TS 50 0 10 307
1916283N19284 1916 59 NA NA NOT_NAMED 1916-10-16 03:00:00 TS 19.9926 -89.4650 main 0 0 P_____________ AL141916 19.9926 -89.4650 TS 45 0 10 305
1916283N19284 1916 59 NA NA NOT_NAMED 1916-10-16 06:00:00 TS 20.3000 -89.9000 40 hurdat_atl main 0 0 O_____________ hurdat_atl AL141916 20.3000 -89.9000 TS 40 0 10 311
1916283N19284 1916 59 NA NA NOT_NAMED 1916-10-16 09:00:00 TS 20.6424 -90.2525 main 0 0 P_____________ AL141916 20.6424 -90.2525 TS 40 0 9 321
1916283N19284 1916 59 NA GM NOT_NAMED 1916-10-16 12:00:00 TS 21.0000 -90.5000 40 hurdat_atl main 20 20 O_____________ hurdat_atl AL141916 21.0000 -90.5000 TS 40 0 8 333
1916283N19284 1916 59 NA GM NOT_NAMED 1916-10-16 15:00:00 TS 21.3499 -90.6377 main 38 38 P_____________ AL141916 21.3499 -90.6377 TS 45 0 7 345
1916283N19284 1916 59 NA GM NOT_NAMED 1916-10-16 18:00:00 TS 21.7000 -90.7000 50 hurdat_atl main 78 78 O_____________ hurdat_atl AL141916 21.7000 -90.7000 TS 50 0 7 349
1916283N19284 1916 59 NA GM NOT_NAMED 1916-10-16 21:00:00 TS 22.0425 -90.7799 main 113 113 P_____________ AL141916 22.0425 -90.7799 TS 55 0 7 353
1916283N19284 1916 59 NA GM NOT_NAMED 1916-10-17 00:00:00 TS 22.4000 -90.8000 60 hurdat_atl main 154 154 O_____________ hurdat_atl AL141916 22.4000 -90.8000 TS 60 0 8 2
1916283N19284 1916 59 NA GM NOT_NAMED 1916-10-17 03:00:00 TS 22.7925 -90.7301 main 194 194 P_____________ AL141916 22.7925 -90.7301 TS 65 1 8 13
1916283N19284 1916 59 NA GM NOT_NAMED 1916-10-17 06:00:00 TS 23.2000 -90.6000 70 hurdat_atl main 234 234 O_____________ hurdat_atl AL141916 23.2000 -90.6000 HU 70 1 8 17
1916283N19284 1916 59 NA GM NOT_NAMED 1916-10-17 09:00:00 TS 23.5699 -90.4796 main 275 275 P_____________ AL141916 23.5699 -90.4796 HU 75 1 9 19
1916283N19284 1916 59 NA GM NOT_NAMED 1916-10-17 12:00:00 TS 24.0000 -90.3000 80 hurdat_atl main 315 315 O_____________ hurdat_atl AL141916 24.0000 -90.3000 HU 80 1 11 22
1916283N19284 1916 59 NA GM NOT_NAMED 1916-10-17 15:00:00 TS 24.5625 -90.0300 main 374 374 P_____________ AL141916 24.5625 -90.0300 HU 82 1 13 24
1916283N19284 1916 59 NA GM NOT_NAMED 1916-10-17 18:00:00 TS 25.2000 -89.7000 85 hurdat_atl main 428 358 O_____________ hurdat_atl AL141916 25.2000 -89.7000 HU 85 2 14 25
1916283N19284 1916 59 NA GM NOT_NAMED 1916-10-17 21:00:00 TS 25.8349 -89.3646 main 358 279 P_____________ AL141916 25.8349 -89.3646 HU 87 2 15 26
1916283N19284 1916 59 NA GM NOT_NAMED 1916-10-18 00:00:00 TS 26.5000 -89.0000 90 hurdat_atl main 279 215 O_____________ hurdat_atl AL141916 26.5000 -89.0000 HU 90 2 15 27
1916283N19284 1916 59 NA GM NOT_NAMED 1916-10-18 03:00:00 TS 27.1700 -88.5996 main 206 151 P_____________ AL141916 27.1700 -88.5996 HU 92 2 16 27
1916283N19284 1916 59 NA GM NOT_NAMED 1916-10-18 06:00:00 TS 27.9000 -88.2000 95 hurdat_atl main 151 126 O_____________ hurdat_atl AL141916 27.9000 -88.2000 HU 95 2 16 26
1916283N19284 1916 59 NA GM NOT_NAMED 1916-10-18 09:00:00 TS 28.6492 -87.7970 main 129 89 P_____________ AL141916 28.6492 -87.7970 HU 95 2 18 20
1916283N19284 1916 59 NA GM NOT_NAMED 1916-10-18 12:00:00 TS 29.6000 -87.5000 95 970 hurdat_atl main 78 0 O_____________ hurdat_atl AL141916 29.6000 -87.5000 HU 95 970 2 22 11
1916283N19284 1916 59 NA GM NOT_NAMED 1916-10-18 14:00:00 TS 30.4000 -87.4000 95 970 hurdat_atl main 9 0 O_____________ hurdat_atl AL141916 30.4000 -87.4000 L HU 95 970 2 23 7
1916283N19284 1916 59 NA NA NOT_NAMED 1916-10-18 15:00:00 TS 30.7313 -87.3377 main 0 0 P_____________ AL141916 30.7313 -87.3377 HU 87 2 18 8
1916283N19284 1916 59 NA NA NOT_NAMED 1916-10-18 18:00:00 TS 31.6000 -87.2000 65 hurdat_atl main 0 0 O_____________ hurdat_atl AL141916 31.6000 -87.2000 HU 65 1 20 0
1916283N19284 1916 59 NA NA NOT_NAMED 1916-10-18 21:00:00 TS 32.7045 -87.3212 main 0 0 P_____________ AL141916 32.7045 -87.3212 HU 55 0 23 352
1916283N19284 1916 59 NA NA NOT_NAMED 1916-10-19 00:00:00 TS 33.9000 -87.6000 45 hurdat_atl main 0 0 O_____________ hurdat_atl AL141916 33.9000 -87.6000 TS 45 0 24 349
1916283N19284 1916 59 NA NA NOT_NAMED 1916-10-19 03:00:00 TS 35.0499 -87.8709 main 0 0 P_____________ AL141916 35.0499 -87.8709 TS 37 0 24 348
1916283N19284 1916 59 NA NA NOT_NAMED 1916-10-19 06:00:00 TS 36.2000 -88.2000 30 hurdat_atl main 0 0 O_____________ hurdat_atl AL141916 36.2000 -88.2000 TD 30 -1 24 346
1916283N19284 1916 59 NA NA NOT_NAMED 1916-10-19 09:00:00 TS 37.3503 -88.5823 main 0 0 P_____________ AL141916 37.3503 -88.5823 TD 27 -1 24 345
1916283N19284 1916 59 NA NA NOT_NAMED 1916-10-19 12:00:00 ET 38.5000 -89.0000 25 hurdat_atl main 0 O_____________ hurdat_atl AL141916 38.5000 -89.0000 EX 25 -4 24 344

About IBTrACS Database

This database is a web-friendly format of International Best Track Archive for Climate Stewardship (IBTrACS), a global best track data archive curated by NOAA dating back to 1842.

Updated: 2021-11-26